This is the latest recevied weather packets stored in our database for station/object DH0GMA. If no packets are shown the sender has not sent any weather packets the latest 10 day(s).
| Time | Temp. | Humidity | Pressure | Rain* | Wind** | Luminosity | Snow |
|---|---|---|---|---|---|---|---|
| 1777847704 | 13.33° C | 62% | 1014.7 hPa | 0 mm | - | - | - |
| 1777842305 | 15.56° C | 54% | 1013.9 hPa | 0 mm | - | - | - |
| 1777839308 | 17.22° C | 50% | 1013.1 hPa | 0 mm | - | - | - |
| 1777836304 | 18.89° C | 55% | 1012.3 hPa | 0 mm | - | - | - |
| 1777832705 | 20.56° C | 50% | 1011.4 hPa | 0 mm | - | - | - |
| 1777830905 | 21.11° C | 47% | 1011.2 hPa | 0 mm | - | - | - |
| 1777800904 | 22.22° C | 44% | 1014.4 hPa | 0 mm | - | - | - |
| 1777800304 | 21.67° C | 46% | 1014.6 hPa | 0 mm | - | - | - |
| 1777799704 | 21.11° C | 46% | 1014.6 hPa | 0 mm | - | - | - |
| 1777798504 | 21.11° C | 47% | 1014.6 hPa | 0 mm | - | - | - |
| 1777797904 | 20.56° C | 48% | 1014.8 hPa | 0 mm | - | - | - |
| 1777797304 | 20° C | 53% | 1014.9 hPa | 0 mm | - | - | - |
| 1777796703 | 18.89° C | 56% | 1015 hPa | 0 mm | - | - | - |
| 1777796103 | 18.33° C | 63% | 1014.9 hPa | 0 mm | - | - | - |
| 1777795503 | 17.78° C | 64% | 1015 hPa | 0 mm | - | - | - |
| 1777794903 | 16.67° C | 66% | 1015 hPa | 0 mm | - | - | - |
| 1777794303 | 16.11° C | 67% | 1015 hPa | 0 mm | - | - | - |
| 1777793704 | 15.56° C | 68% | 1015 hPa | 0 mm | - | - | - |
| 1777793104 | 15° C | 69% | 1015 hPa | 0 mm | - | - | - |
| 1777792503 | 14.44° C | 70% | 1015 hPa | 0 mm | - | - | - |
| 1777791903 | 14.44° C | 70% | 1015.1 hPa | 0 mm | - | - | - |
| 1777791303 | 14.44° C | 69% | 1015.2 hPa | 0 mm | - | - | - |
| 1777790103 | 13.33° C | 72% | 1015.3 hPa | 0 mm | - | - | - |
| 1777789503 | 12.22° C | 74% | 1015.3 hPa | 0 mm | - | - | - |
| 1777788904 | 11.67° C | 75% | 1015.2 hPa | 0 mm | - | - | - |
* Rain latest hour (hover to see other rain measurements)
** Current wind speed in m/s (hover to see current wind gust speed)